Time;durP1;ratioP1;P1;durP2;ratioP2;P2;SDS_P1;SDS_P2;PMS_P1;PMS_P2;Temp;Humidity;BMP_temperature;BMP_pressure;BME280_temperature;BME280_humidity;BME280_pressure;Samples;Min_cycle;Max_cycle;Signal;HPM_P1;HPM_P2
2023/04/27 00:01:57;;;;;;;10.07;4.40;;;11.60;46.90;;;;;;5095110;27;20527;-86
2023/04/27 00:04:24;;;;;;;7.50;4.03;;;11.60;46.70;;;;;;5058312;28;20482;-81
2023/04/27 00:06:53;;;;;;;6.63;3.73;;;11.60;46.50;;;;;;5093201;28;20450;-83
2023/04/27 00:09:20;;;;;;;4.80;3.77;;;11.70;46.30;;;;;;5081777;28;20482;-83
2023/04/27 00:11:47;;;;;;;4.40;3.73;;;11.60;46.10;;;;;;5089841;28;20432;-84
2023/04/27 00:14:14;;;;;;;5.63;3.87;;;11.70;46.20;;;;;;5076139;28;20479;-83
2023/04/27 00:16:41;;;;;;;6.10;4.17;;;11.70;46.30;;;;;;5090315;28;20491;-81
2023/04/27 00:19:08;;;;;;;5.73;3.93;;;11.70;46.50;;;;;;5090818;28;20543;-84
2023/04/27 00:21:35;;;;;;;6.20;4.30;;;11.70;47.10;;;;;;5090533;28;20531;-81
2023/04/27 00:24:04;;;;;;;7.83;4.20;;;11.60;47.10;;;;;;5091984;28;20473;-83
2023/04/27 00:26:31;;;;;;;4.83;4.33;;;11.50;46.90;;;;;;5096554;28;20430;-82
2023/04/27 00:29:00;;;;;;;6.57;4.80;;;11.40;47.30;;;;;;5065754;28;20472;-83
2023/04/27 00:31:26;;;;;;;6.50;4.60;;;11.30;47.60;;;;;;5091944;28;20453;-84
2023/04/27 00:33:53;;;;;;;10.90;5.00;;;11.30;47.60;;;;;;5094283;28;20435;-84
2023/04/27 00:36:20;;;;;;;10.40;4.73;;;11.30;47.60;;;;;;5050288;28;20459;-83
2023/04/27 00:38:48;;;;;;;5.20;4.40;;;11.30;47.80;;;;;;5069570;28;20454;-83
2023/04/27 00:41:16;;;;;;;7.00;5.03;;;11.20;47.70;;;;;;5113321;27;20459;-84
2023/04/27 00:43:45;;;;;;;6.33;3.70;;;11.30;48.10;;;;;;5095410;27;20506;-83
2023/04/27 00:46:13;;;;;;;6.67;4.50;;;11.30;48.10;;;;;;5095645;28;20471;-79
2023/04/27 00:48:41;;;;;;;4.57;3.87;;;11.30;48.30;;;;;;5097251;27;20504;-82
2023/04/27 00:51:08;;;;;;;6.90;4.10;;;11.40;48.70;;;;;;5052199;28;20453;-83
2023/04/27 00:53:36;;;;;;;6.20;4.57;;;11.30;48.80;;;;;;5098747;27;20450;-83
2023/04/27 00:56:04;;;;;;;6.27;4.30;;;11.40;48.80;;;;;;5084436;28;20466;-83
2023/04/27 00:58:33;;;;;;;5.23;4.43;;;11.30;48.60;;;;;;5110621;27;20463;-84
2023/04/27 01:01:00;;;;;;;12.00;5.17;;;11.30;48.50;;;;;;5096943;27;20925;-84
2023/04/27 01:03:29;;;;;;;6.90;3.97;;;11.30;49.10;;;;;;5077549;28;20532;-83
2023/04/27 01:06:00;;;;;;;5.83;3.87;;;11.00;48.30;;;;;;5074233;28;20468;-83
2023/04/27 01:08:28;;;;;;;5.60;4.67;;;10.80;48.40;;;;;;5078956;28;20466;-82
2023/04/27 01:10:55;;;;;;;7.10;4.60;;;10.80;47.90;;;;;;5111326;27;20451;-83
2023/04/27 01:13:22;;;;;;;6.90;4.40;;;10.80;48.00;;;;;;5111644;27;20460;-84
2023/04/27 01:15:50;;;;;;;7.50;4.60;;;10.80;48.30;;;;;;5087282;28;20619;-81
2023/04/27 01:18:17;;;;;;;6.00;4.97;;;10.90;48.20;;;;;;5093359;28;20505;-82
2023/04/27 01:20:45;;;;;;;7.10;5.30;;;11.00;48.10;;;;;;5093098;28;20443;-83
2023/04/27 01:23:15;;;;;;;5.97;4.40;;;11.00;47.80;;;;;;5077037;28;21037;-84
2023/04/27 01:25:43;;;;;;;5.90;4.50;;;10.90;48.30;;;;;;5073783;28;20858;-83
2023/04/27 01:28:10;;;;;;;9.20;4.80;;;10.80;47.60;;;;;;5110676;27;20460;-84
2023/04/27 01:30:37;;;;;;;5.13;4.63;;;10.80;48.50;;;;;;5068346;28;20439;-84
2023/04/27 01:33:05;;;;;;;6.60;4.80;;;10.80;48.70;;;;;;5067915;28;20449;-83
2023/04/27 01:35:32;;;;;;;4.60;4.10;;;10.70;48.90;;;;;;5062340;28;20628;-84
2023/04/27 01:38:01;;;;;;;5.67;4.70;;;10.80;48.80;;;;;;5114005;27;20444;-83
2023/04/27 01:40:29;;;;;;;5.00;3.90;;;10.80;48.60;;;;;;5092838;27;20448;-81
2023/04/27 01:42:56;;;;;;;4.70;4.20;;;10.80;48.80;;;;;;5083616;28;20562;-82
2023/04/27 01:45:23;;;;;;;7.87;5.17;;;10.80;48.70;;;;;;5096874;27;20463;-84
2023/04/27 01:47:51;;;;;;;5.50;4.20;;;10.80;48.80;;;;;;5111251;27;20455;-83
2023/04/27 01:50:20;;;;;;;6.60;4.17;;;10.80;48.70;;;;;;5094813;27;20819;-83
2023/04/27 01:52:47;;;;;;;5.63;4.50;;;10.80;49.00;;;;;;5061076;28;20448;-84
2023/04/27 01:55:14;;;;;;;9.47;4.40;;;10.80;49.10;;;;;;5092789;27;20558;-82
2023/04/27 01:57:43;;;;;;;4.97;4.13;;;10.80;48.80;;;;;;5074654;28;20515;-84
2023/04/27 02:00:12;;;;;;;5.03;3.63;;;10.80;48.80;;;;;;5085222;28;20453;-84
2023/04/27 02:02:49;;;;;;;6.63;4.63;;;10.80;48.60;;;;;;5094142;27;20470;-83
2023/04/27 02:05:16;;;;;;;5.10;4.43;;;10.80;48.70;;;;;;5093156;27;20980;-84
2023/04/27 02:07:44;;;;;;;5.83;5.03;;;10.80;49.00;;;;;;5077481;28;20443;-83
2023/04/27 02:10:11;;;;;;;8.23;4.47;;;10.70;49.30;;;;;;5064184;28;20444;-84
2023/04/27 02:12:38;;;;;;;7.43;5.00;;;10.70;49.60;;;;;;5090651;27;20452;-84
2023/04/27 02:15:08;;;;;;;5.40;4.40;;;10.70;49.70;;;;;;5062527;28;20473;-84
2023/04/27 02:17:37;;;;;;;8.97;4.80;;;10.80;49.80;;;;;;5073981;27;20832;-82
2023/04/27 02:20:05;;;;;;;8.47;5.10;;;10.70;50.10;;;;;;5050532;28;20500;-83
2023/04/27 02:22:32;;;;;;;5.40;4.07;;;10.60;50.30;;;;;;5075853;28;20474;-83
2023/04/27 02:24:59;;;;;;;6.67;5.07;;;10.60;50.50;;;;;;5081869;28;20467;-83
2023/04/27 02:27:26;;;;;;;6.00;4.63;;;10.60;50.80;;;;;;5094428;27;20532;-82
2023/04/27 02:29:53;;;;;;;7.10;4.77;;;10.60;50.60;;;;;;5108717;27;20470;-84
2023/04/27 02:32:22;;;;;;;8.00;3.90;;;10.60;50.40;;;;;;5075365;28;20943;-84
2023/04/27 02:34:50;;;;;;;6.43;4.20;;;10.60;50.10;;;;;;5071169;28;20528;-82
2023/04/27 02:37:17;;;;;;;4.80;4.10;;;10.60;49.50;;;;;;5083555;28;20455;-83
2023/04/27 02:39:44;;;;;;;7.03;4.13;;;10.50;50.10;;;;;;5079317;28;20436;-83
2023/04/27 02:42:11;;;;;;;7.23;4.73;;;10.40;49.50;;;;;;5096007;28;21082;-83
2023/04/27 02:44:38;;;;;;;5.80;4.50;;;10.40;49.70;;;;;;5094119;28;20573;-82
2023/04/27 02:47:05;;;;;;;9.53;4.80;;;10.40;49.40;;;;;;5074406;28;20462;-82
2023/04/27 02:49:33;;;;;;;7.30;4.27;;;10.30;49.50;;;;;;5066952;28;20494;-82
2023/04/27 02:52:01;;;;;;;5.83;4.37;;;10.30;49.50;;;;;;5095670;27;20439;-83
2023/04/27 02:54:28;;;;;;;5.57;4.13;;;10.30;49.50;;;;;;5075460;27;20535;-84
2023/04/27 02:56:55;;;;;;;5.00;4.47;;;10.20;49.80;;;;;;5061609;28;20442;-82
2023/04/27 02:59:22;;;;;;;5.93;4.27;;;10.20;49.80;;;;;;5046532;28;20474;-85
2023/04/27 03:01:49;;;;;;;6.10;4.73;;;10.10;49.70;;;;;;5060026;28;21216;-83
2023/04/27 03:04:16;;;;;;;7.13;4.40;;;10.10;49.80;;;;;;5060167;28;20507;-84
2023/04/27 03:06:45;;;;;;;5.23;4.07;;;10.20;50.10;;;;;;5093382;28;20451;-81
2023/04/27 03:09:12;;;;;;;6.30;4.93;;;10.10;50.20;;;;;;5067013;28;20447;-82
2023/04/27 03:11:39;;;;;;;7.60;4.80;;;10.20;50.30;;;;;;5079438;28;20452;-82
2023/04/27 03:14:06;;;;;;;7.43;4.83;;;10.20;50.00;;;;;;5090158;28;20514;-83
2023/04/27 03:16:35;;;;;;;6.70;5.00;;;10.20;50.00;;;;;;5064979;27;20463;-82
2023/04/27 03:19:02;;;;;;;10.77;4.43;;;9.90;51.30;;;;;;5094946;27;21298;-83
2023/04/27 03:21:31;;;;;;;5.40;4.70;;;9.70;51.90;;;;;;5076411;27;20452;-84
2023/04/27 03:24:00;;;;;;;5.33;4.80;;;9.80;52.00;;;;;;5058151;28;20995;-84
2023/04/27 03:26:27;;;;;;;7.30;4.47;;;9.90;52.00;;;;;;5052373;28;20537;-83
2023/04/27 03:28:54;;;;;;;7.80;4.90;;;9.90;51.40;;;;;;5068145;28;20545;-83
2023/04/27 03:31:21;;;;;;;6.13;5.03;;;9.90;51.10;;;;;;5093019;27;20452;-83
2023/04/27 03:33:48;;;;;;;7.80;5.17;;;9.90;51.00;;;;;;5090792;27;20471;-82
2023/04/27 03:36:15;;;;;;;8.70;5.23;;;9.90;50.90;;;;;;5096513;27;20533;-82
2023/04/27 03:38:43;;;;;;;7.73;4.73;;;9.80;51.00;;;;;;5094138;28;20447;-82
2023/04/27 03:41:11;;;;;;;5.93;4.27;;;9.80;51.30;;;;;;5060388;28;20490;-84
2023/04/27 03:43:38;;;;;;;7.60;4.70;;;9.40;51.50;;;;;;5108592;27;20479;-83
2023/04/27 03:46:05;;;;;;;5.23;4.30;;;9.10;52.70;;;;;;5087893;28;20535;-80
2023/04/27 03:48:32;;;;;;;9.17;5.40;;;9.00;52.60;;;;;;5091506;27;20455;-83
2023/04/27 03:51:00;;;;;;;6.30;4.80;;;8.90;53.00;;;;;;5089409;28;20439;-82
2023/04/27 03:53:27;;;;;;;5.10;3.90;;;9.10;52.80;;;;;;5090742;28;21070;-83
2023/04/27 03:55:54;;;;;;;7.57;5.27;;;9.30;51.90;;;;;;5075847;28;20456;-83
2023/04/27 03:58:23;;;;;;;10.80;5.87;;;9.30;51.40;;;;;;5077262;28;20531;-81
2023/04/27 04:01:09;;;;;;;7.03;4.80;;;9.40;51.50;;;;;;5070622;28;20462;-82
2023/04/27 04:03:37;;;;;;;8.33;5.53;;;9.40;51.10;;;;;;5077198;28;20472;-83
2023/04/27 04:06:07;;;;;;;7.40;4.83;;;9.10;51.60;;;;;;5109571;27;20478;-83
2023/04/27 04:08:34;;;;;;;6.47;4.60;;;8.90;52.50;;;;;;5077702;28;20448;-85
2023/04/27 04:11:01;;;;;;;6.63;5.30;;;8.70;53.30;;;;;;5061744;28;20443;-82
2023/04/27 04:13:30;;;;;;;8.93;5.00;;;8.90;52.90;;;;;;5060253;28;20968;-83
2023/04/27 04:16:02;;;;;;;6.70;5.20;;;9.10;52.60;;;;;;5047907;28;21027;-83
2023/04/27 04:18:29;;;;;;;5.43;4.80;;;9.20;52.20;;;;;;5065897;28;20455;-83
2023/04/27 04:20:57;;;;;;;5.50;4.83;;;9.30;51.80;;;;;;5108645;27;20448;-85
2023/04/27 04:23:25;;;;;;;7.90;5.90;;;9.40;51.40;;;;;;5055684;28;20466;-85
2023/04/27 04:25:53;;;;;;;5.83;4.90;;;9.50;51.50;;;;;;5079466;28;20545;-83
2023/04/27 04:28:21;;;;;;;5.33;4.40;;;9.50;51.60;;;;;;5057312;28;20454;-82
2023/04/27 04:30:49;;;;;;;7.30;5.60;;;9.50;51.60;;;;;;5085240;28;20447;-81
2023/04/27 04:33:17;;;;;;;7.80;5.40;;;9.60;51.00;;;;;;5070159;28;20888;-83
2023/04/27 04:35:45;;;;;;;5.50;4.50;;;9.60;51.00;;;;;;5073075;28;20466;-84
2023/04/27 04:38:12;;;;;;;7.70;5.13;;;9.60;51.10;;;;;;5072683;28;20447;-83
2023/04/27 04:40:40;;;;;;;18.63;7.80;;;9.60;51.40;;;;;;5092412;28;21436;-83
2023/04/27 04:43:07;;;;;;;7.57;5.77;;;9.50;51.90;;;;;;5105782;27;21995;-84
2023/04/27 04:45:34;;;;;;;9.93;5.80;;;9.50;52.10;;;;;;5090414;28;20497;-83
2023/04/27 04:48:03;;;;;;;7.57;4.97;;;9.60;52.10;;;;;;5041717;28;20961;-83
2023/04/27 04:50:30;;;;;;;6.90;4.50;;;9.70;52.20;;;;;;5061909;28;20477;-85
2023/04/27 04:52:57;;;;;;;7.20;5.23;;;9.80;52.50;;;;;;5070039;28;20509;-82
2023/04/27 04:55:26;;;;;;;10.77;6.00;;;9.80;52.60;;;;;;5108866;27;20533;-84
2023/04/27 04:57:54;;;;;;;8.57;4.63;;;9.70;53.10;;;;;;5047117;28;20467;-83
2023/04/27 05:00:22;;;;;;;11.77;6.60;;;9.80;52.90;;;;;;5104139;27;20484;-86
2023/04/27 05:02:49;;;;;;;9.57;6.17;;;9.90;52.80;;;;;;5063357;28;20444;-83
2023/04/27 05:05:17;;;;;;;8.37;5.57;;;9.90;52.90;;;;;;5057203;28;20773;-82
2023/04/27 05:07:44;;;;;;;9.30;5.70;;;9.90;53.20;;;;;;5043387;28;20496;-84
2023/04/27 05:10:11;;;;;;;7.27;6.17;;;9.60;53.80;;;;;;5090917;28;21235;-83
2023/04/27 05:12:38;;;;;;;10.90;6.80;;;9.50;53.70;;;;;;5070344;28;20540;-84
2023/04/27 05:15:06;;;;;;;6.30;5.37;;;9.60;53.80;;;;;;5091026;28;20721;-82
2023/04/27 05:17:33;;;;;;;7.03;5.30;;;9.80;53.50;;;;;;5046403;28;20578;-84
2023/04/27 05:20:00;;;;;;;15.03;6.40;;;10.00;52.40;;;;;;5089606;28;20539;-83
2023/04/27 05:22:29;;;;;;;7.47;5.70;;;10.00;52.30;;;;;;5093443;27;20442;-83
2023/04/27 05:24:56;;;;;;;7.43;4.73;;;9.90;53.10;;;;;;5057926;28;20988;-83
2023/04/27 05:27:23;;;;;;;6.27;4.40;;;9.60;53.50;;;;;;5073782;28;20541;-84
2023/04/27 05:29:50;;;;;;;7.30;5.07;;;9.80;53.80;;;;;;5084273;28;20824;-83
2023/04/27 05:32:17;;;;;;;6.90;5.80;;;10.00;52.80;;;;;;5109245;27;20943;-84
2023/04/27 05:34:44;;;;;;;6.50;5.80;;;10.00;52.40;;;;;;5050205;28;20508;-83
2023/04/27 05:37:12;;;;;;;13.13;5.97;;;10.00;52.50;;;;;;5094558;28;20448;-85
2023/04/27 05:39:41;;;;;;;5.60;4.73;;;10.00;52.50;;;;;;5092158;27;20458;-82
2023/04/27 05:42:08;;;;;;;6.70;5.60;;;10.10;52.60;;;;;;5083330;28;20987;-84
2023/04/27 05:44:35;;;;;;;5.50;4.90;;;10.20;52.30;;;;;;5075928;27;20561;-84
2023/04/27 05:47:02;;;;;;;8.20;5.80;;;10.30;51.80;;;;;;5094458;27;20464;-85
2023/04/27 05:49:29;;;;;;;7.00;5.03;;;10.30;51.90;;;;;;5065875;28;20483;-84
2023/04/27 05:51:57;;;;;;;7.83;6.20;;;10.20;51.90;;;;;;5062226;28;20451;-84
2023/04/27 05:54:26;;;;;;;7.70;5.93;;;9.90;54.10;;;;;;5095314;27;21475;-83
2023/04/27 05:56:55;;;;;;;8.87;5.90;;;9.80;54.50;;;;;;5060651;28;20455;-84
2023/04/27 05:59:22;;;;;;;9.37;6.03;;;9.70;54.40;;;;;;5096155;27;20454;-81
2023/04/27 06:01:49;;;;;;;8.20;5.87;;;9.50;54.90;;;;;;5090927;27;20478;-83
2023/04/27 06:04:16;;;;;;;5.10;4.60;;;9.40;55.40;;;;;;5053720;28;20482;-84
2023/04/27 06:06:43;;;;;;;9.10;5.30;;;9.60;55.10;;;;;;5061958;28;21134;-85
2023/04/27 06:09:10;;;;;;;8.77;5.57;;;9.70;55.00;;;;;;5088663;27;20591;-82
2023/04/27 06:11:37;;;;;;;7.80;5.50;;;10.00;53.50;;;;;;5080528;27;20466;-83
2023/04/27 06:14:06;;;;;;;8.97;5.27;;;10.10;52.80;;;;;;5059775;28;20541;-84
2023/04/27 06:16:32;;;;;;;5.30;4.67;;;10.20;52.50;;;;;;5076746;27;20440;-85
2023/04/27 06:18:59;;;;;;;5.40;4.90;;;10.00;52.80;;;;;;5064864;28;20466;-82
2023/04/27 06:21:27;;;;;;;5.60;4.80;;;9.90;54.20;;;;;;5092928;28;20546;-84
2023/04/27 06:23:53;;;;;;;7.13;5.10;;;10.00;53.50;;;;;;5059151;28;20827;-84
2023/04/27 06:26:20;;;;;;;9.63;4.83;;;9.90;54.40;;;;;;5090608;27;20606;-83
2023/04/27 06:28:48;;;;;;;6.53;5.50;;;9.90;54.70;;;;;;5065215;28;20512;-85
2023/04/27 06:31:16;;;;;;;6.30;4.97;;;10.00;54.40;;;;;;5060998;28;20933;-83
2023/04/27 06:33:43;;;;;;;12.13;5.53;;;10.00;54.00;;;;;;5087162;27;20444;-81
2023/04/27 06:36:10;;;;;;;7.70;5.10;;;10.20;54.10;;;;;;5088165;28;20558;-84
2023/04/27 06:38:37;;;;;;;9.97;5.13;;;10.20;53.10;;;;;;5048826;28;20509;-83
2023/04/27 06:41:04;;;;;;;16.40;4.30;;;10.00;52.50;;;;;;5065222;28;20820;-81
2023/04/27 06:43:32;;;;;;;8.07;4.73;;;9.80;53.70;;;;;;5064534;28;20470;-86
2023/04/27 06:45:59;;;;;;;6.17;4.97;;;9.90;54.20;;;;;;5075083;28;20470;-85
2023/04/27 06:48:27;;;;;;;5.30;4.53;;;10.30;52.70;;;;;;5075871;28;21026;-86
2023/04/27 06:50:54;;;;;;;4.70;4.20;;;10.50;52.20;;;;;;5074925;28;20713;-86
2023/04/27 06:53:21;;;;;;;9.80;5.03;;;10.60;52.10;;;;;;5091676;27;20459;-82
2023/04/27 06:55:49;;;;;;;5.83;3.97;;;10.60;52.10;;;;;;5067822;27;20615;-84
2023/04/27 06:58:16;;;;;;;6.80;4.43;;;10.50;52.70;;;;;;5050057;28;20452;-84
2023/04/27 07:00:44;;;;;;;9.07;4.30;;;10.60;52.70;;;;;;5090717;28;20543;-84
2023/04/27 07:03:11;;;;;;;4.90;4.33;;;10.80;52.30;;;;;;5072451;28;20525;-84
2023/04/27 07:05:39;;;;;;;9.13;4.57;;;11.10;51.80;;;;;;5107623;27;20521;-84
2023/04/27 07:08:06;;;;;;;8.30;4.70;;;11.50;51.30;;;;;;5040318;28;20440;-84
2023/04/27 07:10:33;;;;;;;9.50;4.70;;;11.80;50.20;;;;;;5068544;27;20470;-85
2023/04/27 07:13:00;;;;;;;10.23;4.73;;;11.60;50.10;;;;;;5092204;28;20546;-82
2023/04/27 07:15:27;;;;;;;9.60;4.33;;;11.50;49.90;;;;;;5092308;28;20479;-84
2023/04/27 07:17:54;;;;;;;8.23;4.03;;;11.60;50.00;;;;;;5090596;28;20522;-83
2023/04/27 07:20:22;;;;;;;12.20;4.93;;;11.60;49.50;;;;;;5063392;28;20448;-84
2023/04/27 07:22:50;;;;;;;8.90;4.67;;;11.60;49.80;;;;;;5105199;27;20443;-85
2023/04/27 07:25:17;;;;;;;10.07;5.47;;;11.80;50.00;;;;;;5073341;28;20984;-83
2023/04/27 07:27:45;;;;;;;7.60;4.97;;;12.00;49.60;;;;;;5049056;27;20545;-85
2023/04/27 07:30:14;;;;;;;7.80;4.80;;;12.40;49.30;;;;;;5048080;28;20439;-85
2023/04/27 07:32:41;;;;;;;4.27;3.87;;;12.70;47.50;;;;;;5073253;28;20483;-83
2023/04/27 07:35:09;;;;;;;5.10;3.93;;;12.90;47.10;;;;;;5075354;28;21606;-84
2023/04/27 07:37:37;;;;;;;13.20;4.70;;;13.20;47.20;;;;;;5057563;28;20431;-82
2023/04/27 07:40:09;;;;;;;5.03;3.70;;;13.10;47.20;;;;;;5092210;27;20679;-84
2023/04/27 07:42:38;;;;;;;7.60;3.93;;;13.10;46.90;;;;;;5091231;27;20948;-83
2023/04/27 07:45:06;;;;;;;5.50;3.80;;;13.30;47.00;;;;;;5045929;28;20464;-85
2023/04/27 07:47:33;;;;;;;5.83;4.00;;;13.30;46.20;;;;;;5090583;27;20461;-84
2023/04/27 07:50:00;;;;;;;11.50;3.67;;;13.30;46.80;;;;;;5051681;28;20521;-85
2023/04/27 07:52:27;;;;;;;6.13;3.97;;;13.20;46.70;;;;;;5089424;28;20439;-86
2023/04/27 07:54:54;;;;;;;9.30;4.37;;;13.30;47.40;;;;;;5090173;28;20535;-83
2023/04/27 07:57:22;;;;;;;7.10;4.07;;;13.50;46.50;;;;;;5067998;28;20494;-86
2023/04/27 07:59:49;;;;;;;7.90;4.47;;;13.60;46.50;;;;;;5054140;28;20466;-84
2023/04/27 08:02:16;;;;;;;12.13;4.60;;;13.80;46.50;;;;;;5093205;27;20443;-83
2023/04/27 08:04:43;;;;;;;4.20;3.80;;;14.00;45.70;;;;;;5092105;28;20474;-84
2023/04/27 08:07:10;;;;;;;7.33;3.70;;;13.90;45.50;;;;;;5089259;28;20539;-82
2023/04/27 08:09:37;;;;;;;7.47;3.37;;;14.10;45.40;;;;;;5060954;28;20823;-85
2023/04/27 08:12:05;;;;;;;6.77;4.60;;;14.20;45.00;;;;;;5070925;28;20452;-84
2023/04/27 08:14:35;;;;;;;7.23;3.60;;;14.50;45.60;;;;;;5054844;28;20546;-82
2023/04/27 08:17:02;;;;;;;6.30;3.93;;;14.60;44.60;;;;;;5089760;28;20458;-84
2023/04/27 08:19:29;;;;;;;4.63;3.00;;;14.90;43.70;;;;;;5077828;28;20871;-85
2023/04/27 08:21:56;;;;;;;6.30;4.57;;;14.90;42.20;;;;;;5093792;28;20440;-84
2023/04/27 08:24:23;;;;;;;10.03;3.87;;;14.80;41.50;;;;;;5056451;28;20781;-83
2023/04/27 08:26:50;;;;;;;6.10;3.87;;;14.90;41.80;;;;;;5085157;28;20451;-83
2023/04/27 08:29:17;;;;;;;4.60;3.57;;;14.60;41.30;;;;;;5089279;28;20470;-84
2023/04/27 08:31:46;;;;;;;6.20;3.50;;;14.20;41.60;;;;;;5089594;28;20434;-85
2023/04/27 08:34:13;;;;;;;9.93;3.80;;;14.20;41.40;;;;;;5090071;28;20462;-84
2023/04/27 08:36:40;;;;;;;7.27;4.30;;;14.30;40.40;;;;;;5074165;28;20527;-82
2023/04/27 08:39:07;;;;;;;7.60;3.10;;;14.40;41.80;;;;;;5089567;28;20463;-84
2023/04/27 08:41:35;;;;;;;7.63;4.10;;;14.40;41.40;;;;;;5089488;28;20443;-85
2023/04/27 08:44:02;;;;;;;5.20;3.97;;;14.30;40.90;;;;;;5089231;28;20715;-82
2023/04/27 08:46:30;;;;;;;5.50;3.77;;;14.20;40.60;;;;;;5047827;28;20463;-85
2023/04/27 08:49:00;;;;;;;7.00;3.80;;;14.20;40.60;;;;;;5062778;28;20463;-83
2023/04/27 08:51:27;;;;;;;4.37;3.17;;;14.50;41.00;;;;;;5071628;28;20800;-84
2023/04/27 08:53:56;;;;;;;4.23;3.47;;;14.50;40.30;;;;;;5053151;28;20458;-83
2023/04/27 08:56:25;;;;;;;5.03;3.87;;;14.50;40.80;;;;;;5091018;28;20443;-81
2023/04/27 08:58:52;;;;;;;4.60;3.33;;;14.70;40.80;;;;;;5085598;28;20446;-84
2023/04/27 09:01:20;;;;;;;4.17;3.70;;;14.90;39.70;;;;;;5110580;27;20748;-83
2023/04/27 09:03:47;;;;;;;7.67;3.90;;;15.30;40.70;;;;;;5050874;27;20487;-84
2023/04/27 09:06:16;;;;;;;7.83;3.87;;;15.40;37.80;;;;;;5095934;28;20808;-84
2023/04/27 09:08:45;;;;;;;6.27;3.80;;;15.50;38.70;;;;;;5094159;28;20447;-85
2023/04/27 09:11:12;;;;;;;6.87;4.13;;;15.80;37.30;;;;;;5093464;28;20451;-84
2023/04/27 09:13:40;;;;;;;4.50;3.50;;;16.00;38.70;;;;;;5090744;28;20443;-86
2023/04/27 09:16:07;;;;;;;3.57;3.20;;;16.30;39.30;;;;;;5090929;28;20477;-85
2023/04/27 09:18:36;;;;;;;9.33;3.43;;;16.50;38.60;;;;;;5109362;27;20991;-84
2023/04/27 09:21:04;;;;;;;5.73;3.80;;;16.50;37.30;;;;;;5043901;28;20464;-83
2023/04/27 09:23:34;;;;;;;6.60;4.20;;;16.40;37.80;;;;;;5047647;28;20814;-84
2023/04/27 09:26:04;;;;;;;4.37;3.57;;;16.80;38.20;;;;;;5083625;28;20984;-85
2023/04/27 09:28:33;;;;;;;6.63;4.30;;;17.10;37.90;;;;;;5048670;28;20492;-85
2023/04/27 09:31:01;;;;;;;6.73;3.63;;;17.10;35.90;;;;;;5093877;27;20454;-85
2023/04/27 09:33:29;;;;;;;4.90;3.57;;;17.00;36.10;;;;;;5074037;28;20483;-83
2023/04/27 09:35:58;;;;;;;8.40;4.10;;;16.90;35.40;;;;;;5048865;28;20471;-86
2023/04/27 09:38:25;;;;;;;4.67;4.10;;;17.10;35.40;;;;;;5050269;28;20458;-83
2023/04/27 09:40:55;;;;;;;13.63;3.97;;;17.30;35.00;;;;;;5093928;27;20483;-86
2023/04/27 09:43:23;;;;;;;4.50;3.70;;;17.50;35.10;;;;;;5108222;27;20476;-85
2023/04/27 09:45:51;;;;;;;6.03;3.80;;;17.50;35.20;;;;;;5048593;28;20477;-85
2023/04/27 09:48:18;;;;;;;7.97;3.97;;;17.60;35.30;;;;;;5083966;28;20440;-80
2023/04/27 09:50:46;;;;;;;5.87;4.20;;;18.10;34.40;;;;;;5075554;27;20807;-83
2023/04/27 09:53:15;;;;;;;6.97;3.93;;;18.30;34.00;;;;;;5094652;27;20933;-83
2023/04/27 09:55:48;;;;;;;10.33;4.37;;;18.40;33.70;;;;;;5053472;27;20462;-82
2023/04/27 09:58:57;;;;;;;10.80;4.47;;;18.40;33.40;;;;;;5054693;28;20829;-85
2023/04/27 10:01:30;;;;;;;9.67;4.90;;;18.40;33.10;;;;;;5031925;28;20454;-85
2023/04/27 10:04:11;;;;;;;8.90;5.43;;;18.80;32.50;;;;;;5081670;28;20939;-85
2023/04/27 10:07:00;;;;;;;10.00;4.80;;;18.90;31.90;;;;;;5049612;28;20481;-85
2023/04/27 10:09:30;;;;;;;11.27;5.33;;;19.00;33.90;;;;;;5109240;27;20588;-84
2023/04/27 10:12:12;;;;;;;6.63;4.80;;;19.00;31.90;;;;;;5074223;27;20959;-84
2023/04/27 10:14:49;;;;;;;6.10;4.20;;;19.40;34.10;;;;;;5076814;27;20578;-83
2023/04/27 10:17:17;;;;;;;6.10;4.47;;;20.10;32.80;;;;;;5056300;28;20469;-81
2023/04/27 10:19:56;;;;;;;8.50;4.50;;;20.40;30.60;;;;;;5100085;27;20535;-86
2023/04/27 10:22:24;;;;;;;7.90;4.37;;;19.90;30.20;;;;;;5092298;27;20442;-85
2023/04/27 10:24:52;;;;;;;5.97;3.97;;;19.70;33.20;;;;;;5062144;28;21051;-85
2023/04/27 10:27:21;;;;;;;5.57;3.77;;;20.10;31.80;;;;;;5084189;28;20452;-85
2023/04/27 10:29:50;;;;;;;7.30;4.30;;;20.30;31.60;;;;;;5055383;28;20448;-85
2023/04/27 10:32:23;;;;;;;5.40;4.47;;;20.30;31.00;;;;;;5083011;28;20550;-83
2023/04/27 10:34:51;;;;;;;5.77;4.10;;;20.20;30.00;;;;;;5083524;27;20792;-82
2023/04/27 10:37:23;;;;;;;13.03;4.87;;;20.30;30.80;;;;;;5074175;28;20454;-83
2023/04/27 10:39:50;;;;;;;7.47;4.70;;;20.60;31.20;;;;;;5092342;28;21012;-85
2023/04/27 10:42:28;;;;;;;6.50;4.27;;;20.80;30.90;;;;;;5089927;28;20444;-84
2023/04/27 10:44:58;;;;;;;7.93;5.10;;;20.70;29.90;;;;;;5079200;27;20866;-86
2023/04/27 10:47:35;;;;;;;6.37;3.93;;;20.60;29.60;;;;;;5066200;28;20825;-86
2023/04/27 10:50:04;;;;;;;8.50;5.20;;;20.30;29.70;;;;;;5088711;28;20447;-84
2023/04/27 10:52:31;;;;;;;8.30;4.80;;;20.50;29.60;;;;;;5073464;28;20452;-86
2023/04/27 10:55:05;;;;;;;8.87;4.20;;;20.50;29.30;;;;;;5072824;28;20470;-84
2023/04/27 10:57:32;;;;;;;6.20;3.60;;;20.80;29.90;;;;;;5093277;27;20481;-84
2023/04/27 11:00:00;;;;;;;5.47;4.10;;;20.80;30.00;;;;;;5089128;28;20455;-83
2023/04/27 11:02:28;;;;;;;7.50;4.20;;;21.10;30.00;;;;;;5107641;27;20504;-83
2023/04/27 11:04:57;;;;;;;6.37;4.40;;;20.70;29.00;;;;;;5038126;28;20479;-86
2023/04/27 11:07:26;;;;;;;6.70;4.67;;;20.70;29.20;;;;;;5072088;28;21006;-86
2023/04/27 11:09:53;;;;;;;6.57;4.30;;;20.90;29.30;;;;;;5088284;27;20550;-85
2023/04/27 11:12:21;;;;;;;8.30;5.40;;;21.00;29.20;;;;;;5072090;28;20873;-83
2023/04/27 11:14:48;;;;;;;4.83;4.33;;;21.00;28.70;;;;;;5090572;27;20483;-84
2023/04/27 11:17:16;;;;;;;9.00;4.70;;;19.80;29.30;;;;;;5106048;27;20540;-83
2023/04/27 11:19:47;;;;;;;6.87;4.30;;;20.10;29.80;;;;;;5046732;28;20548;-84
2023/04/27 11:22:16;;;;;;;13.90;4.37;;;20.30;29.10;;;;;;5091766;28;20945;-86
2023/04/27 11:24:48;;;;;;;7.57;4.10;;;20.70;30.00;;;;;;5081112;27;20494;-84
2023/04/27 11:27:16;;;;;;;4.30;3.90;;;20.90;28.70;;;;;;5055642;28;20485;-85
2023/04/27 11:29:43;;;;;;;6.60;3.77;;;21.10;30.00;;;;;;5064056;28;20462;-84
2023/04/27 11:32:20;;;;;;;6.90;3.93;;;21.10;28.50;;;;;;5072630;28;20440;-86
2023/04/27 11:34:51;;;;;;;5.57;3.83;;;21.00;29.80;;;;;;5089539;28;20464;-85
2023/04/27 11:37:23;;;;;;;6.63;4.23;;;21.10;28.50;;;;;;5083970;28;20443;-83
2023/04/27 11:39:51;;;;;;;7.83;3.47;;;21.20;28.50;;;;;;5060132;28;20953;-85
2023/04/27 11:42:19;;;;;;;4.07;3.53;;;21.50;28.20;;;;;;5046454;28;20501;-82
2023/04/27 11:44:54;;;;;;;3.93;3.53;;;21.80;28.70;;;;;;5091454;28;20758;-84
2023/04/27 11:47:22;;;;;;;4.73;2.93;;;22.10;29.40;;;;;;5060201;28;20475;-84
2023/04/27 11:49:51;;;;;;;7.10;3.10;;;22.40;28.20;;;;;;5056175;28;20497;-84
2023/04/27 11:52:18;;;;;;;5.63;3.60;;;22.80;28.20;;;;;;5075595;28;20448;-83
2023/04/27 11:54:49;;;;;;;4.80;3.40;;;22.50;27.70;;;;;;5047494;28;20475;-83
2023/04/27 11:57:16;;;;;;;5.73;3.30;;;22.30;27.90;;;;;;5097173;27;20534;-82
2023/04/27 11:59:43;;;;;;;11.10;4.57;;;22.10;28.60;;;;;;5064475;28;20503;-84
2023/04/27 12:02:11;;;;;;;7.30;3.43;;;21.80;27.00;;;;;;5069626;28;20594;-84
2023/04/27 12:04:39;;;;;;;6.60;3.87;;;21.60;28.00;;;;;;5091444;28;20983;-82
2023/04/27 12:07:07;;;;;;;7.43;3.73;;;21.50;28.80;;;;;;5093307;28;20561;-83
2023/04/27 12:09:34;;;;;;;7.13;3.77;;;21.60;28.90;;;;;;5049830;28;20541;-84
2023/04/27 12:12:01;;;;;;;4.30;3.90;;;21.60;29.00;;;;;;5103421;27;21073;-82
2023/04/27 12:14:28;;;;;;;6.53;3.63;;;22.00;28.80;;;;;;5070098;28;20976;-84
2023/04/27 12:16:55;;;;;;;4.60;3.60;;;22.00;28.50;;;;;;5069221;28;20535;-82
2023/04/27 12:19:24;;;;;;;4.40;2.97;;;22.10;28.20;;;;;;5074973;28;20443;-82
2023/04/27 12:21:53;;;;;;;6.43;3.17;;;22.40;28.50;;;;;;5074439;28;20448;-84
2023/04/27 12:24:20;;;;;;;4.00;3.23;;;22.80;28.70;;;;;;5066436;28;20469;-83
2023/04/27 12:26:48;;;;;;;7.63;4.13;;;22.90;28.80;;;;;;5052858;28;21017;-85
2023/04/27 12:29:16;;;;;;;8.00;3.73;;;23.00;28.30;;;;;;5089037;28;20849;-83
2023/04/27 12:31:43;;;;;;;9.60;3.73;;;22.90;27.50;;;;;;5084269;28;20530;-84
2023/04/27 12:34:10;;;;;;;6.43;3.50;;;22.50;27.70;;;;;;5079230;28;20466;-80
2023/04/27 12:36:37;;;;;;;5.97;4.17;;;22.10;28.70;;;;;;5061103;28;20523;-85
2023/04/27 12:39:16;;;;;;;4.10;3.73;;;21.90;28.10;;;;;;5091164;28;20455;-82
2023/04/27 12:41:44;;;;;;;5.07;3.10;;;21.10;29.00;;;;;;5093537;27;20482;-83
2023/04/27 12:44:11;;;;;;;3.80;3.20;;;21.40;29.50;;;;;;5074511;28;20467;-84
2023/04/27 12:46:38;;;;;;;4.50;3.67;;;21.90;29.10;;;;;;5079604;28;20485;-83
2023/04/27 12:49:06;;;;;;;5.50;3.43;;;22.00;29.30;;;;;;5093405;28;21011;-83
2023/04/27 12:51:33;;;;;;;4.57;3.10;;;22.30;28.50;;;;;;5076494;28;20541;-81
2023/04/27 12:54:00;;;;;;;4.40;3.60;;;22.10;29.50;;;;;;5062236;28;21098;-83